Time;durP1;ratioP1;P1;durP2;ratioP2;P2;SDS_P1;SDS_P2;PMS_P1;PMS_P2;Temp;Humidity;BMP_temperature;BMP_pressure;BME280_temperature;BME280_humidity;BME280_pressure;Samples;Min_cycle;Max_cycle;Signal;HPM_P1;HPM_P2
2024/01/28 00:01:37;;;;;;;3.83;1.42;;;;;;;9.77;99.13;100926.81;4986608;28;20409;-62
2024/01/28 00:04:05;;;;;;;4.57;1.60;;;;;;;9.78;99.09;100927.66;4987583;28;20057;-62
2024/01/28 00:06:33;;;;;;;4.18;1.20;;;;;;;9.79;99.11;100932.03;4989080;28;20568;-62
2024/01/28 00:09:00;;;;;;;4.55;1.10;;;;;;;9.79;99.03;100927.28;4985719;28;20420;-63
2024/01/28 00:11:27;;;;;;;3.40;1.52;;;;;;;9.80;99.32;100923.41;4989004;28;20062;-62
2024/01/28 00:13:55;;;;;;;3.10;0.88;;;;;;;9.82;99.21;100911.19;4989425;28;20057;-62
2024/01/28 00:16:23;;;;;;;2.22;1.00;;;;;;;9.82;99.09;100910.03;4989234;28;20428;-62
2024/01/28 00:18:57;;;;;;;3.40;1.30;;;;;;;9.85;99.26;100908.56;4988797;28;20123;-62
2024/01/28 00:21:25;;;;;;;1.30;1.17;;;;;;;9.85;99.25;100914.09;4988045;28;20068;-62
2024/01/28 00:23:53;;;;;;;1.98;0.75;;;;;;;9.85;99.27;100907.78;4988926;28;20563;-62
2024/01/28 00:26:20;;;;;;;2.63;1.48;;;;;;;9.85;99.42;100908.56;4989435;28;20522;-63
2024/01/28 00:28:47;;;;;;;5.57;0.95;;;;;;;9.83;99.50;100897.03;4987497;28;20407;-62
2024/01/28 00:31:15;;;;;;;2.15;1.00;;;;;;;9.84;99.48;100884.84;5004057;28;20050;-62
2024/01/28 00:33:42;;;;;;;2.97;1.33;;;;;;;9.82;99.67;100895.44;4989291;28;20616;-62
2024/01/28 00:36:14;;;;;;;2.83;1.00;;;;;;;9.81;99.82;100891.03;4975849;28;20041;-62
2024/01/28 00:38:42;;;;;;;2.50;0.82;;;;;;;9.78;99.78;100880.63;4989256;28;20050;-62
2024/01/28 00:41:22;;;;;;;3.90;0.82;;;;;;;9.76;100.00;100894.81;4989144;28;20065;-62
2024/01/28 00:43:52;;;;;;;2.03;0.73;;;;;;;9.76;100.00;100888.47;4989169;28;20049;-62
2024/01/28 00:46:21;;;;;;;9.52;1.33;;;;;;;9.74;100.00;100874.97;4988684;28;20049;-62
2024/01/28 00:48:49;;;;;;;3.75;1.10;;;;;;;9.73;100.00;100876.13;4989419;28;20061;-62
2024/01/28 00:51:17;;;;;;;2.20;0.90;;;;;;;9.74;100.00;100874.97;4987254;28;20057;-64
2024/01/28 00:53:44;;;;;;;0.75;0.40;;;;;;;9.76;100.00;100871.88;4988633;28;20598;-63
2024/01/28 00:56:16;;;;;;;0.82;0.52;;;;;;;9.76;100.00;100872.69;4987552;28;20054;-62
2024/01/28 00:58:44;;;;;;;2.53;1.00;;;;;;;9.77;100.00;100876.25;4987875;28;20046;-62
2024/01/28 01:01:12;;;;;;;1.15;1.10;;;;;;;9.78;100.00;100866.81;4987114;28;20058;-64
2024/01/28 01:03:40;;;;;;;1.33;0.65;;;;;;;9.78;100.00;100864.06;4986430;28;20400;-63
2024/01/28 01:06:07;;;;;;;0.73;0.60;;;;;;;9.79;100.00;100854.63;4988129;28;20054;-62
2024/01/28 01:08:37;;;;;;;1.38;0.65;;;;;;;9.80;100.00;100853.47;4987324;28;20057;-62
2024/01/28 01:11:07;;;;;;;1.13;0.77;;;;;;;9.79;100.00;100843.56;4988018;28;20046;-62
2024/01/28 01:13:34;;;;;;;1.67;0.88;;;;;;;9.80;100.00;100857.03;4987536;28;20069;-62
2024/01/28 01:16:02;;;;;;;4.22;0.82;;;;;;;9.82;100.00;100853.94;4987677;28;20069;-62
2024/01/28 01:18:30;;;;;;;2.38;0.73;;;;;;;9.85;100.00;100824.81;4987428;28;20050;-63
2024/01/28 01:20:57;;;;;;;1.60;0.90;;;;;;;9.89;100.00;100836.81;4987934;28;20727;-63
2024/01/28 01:23:25;;;;;;;3.60;0.90;;;;;;;9.94;100.00;100822.75;4988035;28;20046;-62
2024/01/28 01:25:52;;;;;;;5.75;1.50;;;;;;;9.97;100.00;100822.09;4987377;28;20053;-62
2024/01/28 01:28:19;;;;;;;3.15;0.60;;;;;;;9.96;100.00;100826.00;4986778;28;20046;-63
2024/01/28 01:30:47;;;;;;;1.20;0.65;;;;;;;9.98;100.00;100818.19;4986497;28;20407;-63
2024/01/28 01:33:15;;;;;;;1.75;0.82;;;;;;;9.98;100.00;100818.19;4987994;28;20057;-62
2024/01/28 01:35:42;;;;;;;1.20;1.00;;;;;;;9.98;100.00;100815.44;4987091;28;20049;-62
2024/01/28 01:38:10;;;;;;;1.52;0.82;;;;;;;9.98;100.00;100810.69;4986580;28;20054;-62
2024/01/28 01:40:38;;;;;;;1.73;1.00;;;;;;;9.98;100.00;100796.84;4987076;28;20058;-63
2024/01/28 01:43:11;;;;;;;2.13;1.27;;;;;;;9.98;100.00;100796.06;4987101;28;20050;-63
2024/01/28 01:45:40;;;;;;;1.52;0.80;;;;;;;9.98;100.00;100802.38;4986559;28;20053;-62
2024/01/28 01:48:11;;;;;;;1.85;1.02;;;;;;;10.00;100.00;100782.69;4986963;28;20058;-62
2024/01/28 01:50:43;;;;;;;3.33;1.30;;;;;;;10.04;100.00;100783.63;4985891;28;20054;-63
2024/01/28 01:53:11;;;;;;;2.67;1.00;;;;;;;10.07;100.00;100788.47;4987709;28;20057;-62
2024/01/28 01:55:40;;;;;;;4.50;1.13;;;;;;;10.10;100.00;100787.78;4987073;28;20050;-62
2024/01/28 01:58:08;;;;;;;2.35;1.00;;;;;;;10.10;100.00;100783.06;4987497;28;20516;-63
2024/01/28 02:00:37;;;;;;;3.22;1.10;;;;;;;10.11;100.00;100779.16;4982482;28;20499;-63
2024/01/28 02:03:05;;;;;;;1.95;0.98;;;;;;;10.15;100.00;100771.81;4985996;28;20085;-62
2024/01/28 02:05:34;;;;;;;6.72;1.67;;;;;;;10.19;100.00;100786.56;4987298;28;20500;-62
2024/01/28 02:08:01;;;;;;;5.20;1.48;;;;;;;10.21;100.00;100747.53;4987372;28;20523;-62
2024/01/28 02:10:29;;;;;;;4.80;1.27;;;;;;;10.23;100.00;100781.19;4986979;28;20054;-62
2024/01/28 02:12:57;;;;;;;7.00;1.60;;;;;;;10.23;100.00;100765.38;4982201;28;20042;-62
2024/01/28 02:15:24;;;;;;;9.57;2.80;;;;;;;10.26;100.00;100745.34;4986770;28;20077;-62
2024/01/28 02:17:52;;;;;;;4.60;1.67;;;;;;;10.28;100.00;100751.34;4987323;28;20050;-63
2024/01/28 02:20:20;;;;;;;8.55;1.90;;;;;;;10.28;100.00;100751.34;4986110;28;20042;-63
2024/01/28 02:22:48;;;;;;;3.40;1.67;;;;;;;10.30;99.66;100749.03;4986650;28;20042;-62
2024/01/28 02:25:15;;;;;;;9.07;2.63;;;;;;;10.31;99.75;100739.59;4988082;28;20039;-63
2024/01/28 02:27:45;;;;;;;16.08;3.42;;;;;;;10.32;99.41;100741.22;4987772;28;20061;-63
2024/01/28 02:30:14;;;;;;;7.65;2.58;;;;;;;10.32;99.30;100746.75;4987014;28;20504;-62
2024/01/28 02:32:51;;;;;;;6.63;2.35;;;;;;;10.32;99.27;100738.44;4985750;28;20038;-62
2024/01/28 02:35:19;;;;;;;8.15;2.80;;;;;;;10.31;99.25;100745.13;4987430;28;20114;-62
2024/01/28 02:37:47;;;;;;;5.82;2.05;;;;;;;10.29;98.93;100736.34;4986665;28;20057;-63
2024/01/28 02:40:15;;;;;;;10.73;3.05;;;;;;;10.29;99.17;100724.47;4987292;28;20054;-63
2024/01/28 02:42:42;;;;;;;11.07;3.03;;;;;;;10.27;99.33;100727.56;4987159;28;20054;-62
2024/01/28 02:45:10;;;;;;;12.50;2.58;;;;;;;10.27;99.33;100732.31;4988199;28;20050;-63
2024/01/28 02:47:37;;;;;;;10.40;3.10;;;;;;;10.27;99.34;100727.56;4993692;28;20046;-62
2024/01/28 02:50:05;;;;;;;12.52;2.63;;;;;;;10.28;99.18;100723.66;4988130;28;20062;-62
2024/01/28 02:52:32;;;;;;;11.40;3.08;;;;;;;10.28;99.01;100712.59;4988199;28;20054;-62
2024/01/28 02:55:00;;;;;;;12.85;2.83;;;;;;;10.29;99.20;100713.41;4980881;28;20066;-63
2024/01/28 02:57:27;;;;;;;11.57;3.30;;;;;;;10.27;99.06;100699.91;4987266;28;20053;-63
2024/01/28 02:59:55;;;;;;;28.35;4.20;;;;;;;10.27;99.02;100705.44;4986596;28;20535;-63
2024/01/28 03:02:23;;;;;;;11.63;2.72;;;;;;;10.28;98.83;100709.81;5073068;22;20062;-61
2024/01/28 03:04:51;;;;;;;15.73;4.30;;;;;;;10.30;98.94;100701.16;5005623;28;20065;-60
2024/01/28 03:07:18;;;;;;;9.23;3.63;;;;;;;10.30;99.00;100701.97;5005982;28;20050;-61
2024/01/28 03:09:46;;;;;;;16.77;4.22;;;;;;;10.30;98.71;100690.91;5006623;28;20049;-60
2024/01/28 03:12:13;;;;;;;13.05;4.10;;;;;;;10.29;99.04;100697.63;5006821;28;20062;-61
2024/01/28 03:14:41;;;;;;;12.52;3.35;;;;;;;10.29;98.82;100699.56;5006181;28;20061;-61
2024/01/28 03:17:08;;;;;;;11.43;4.50;;;;;;;10.30;98.75;100703.94;5007025;28;20065;-60
2024/01/28 03:19:36;;;;;;;22.30;4.30;;;;;;;10.31;98.59;100694.50;4999821;28;20141;-62
2024/01/28 03:22:04;;;;;;;25.05;5.07;;;;;;;10.32;98.41;100691.41;4987334;28;20043;-61
2024/01/28 03:24:31;;;;;;;13.50;3.38;;;;;;;10.34;98.21;100686.31;4987152;28;20510;-61
2024/01/28 03:26:59;;;;;;;25.13;5.25;;;;;;;10.35;97.97;100687.13;4998834;28;20054;-61
2024/01/28 03:29:27;;;;;;;19.48;3.88;;;;;;;10.33;98.03;100687.47;5006156;28;20073;-61
2024/01/28 03:31:54;;;;;;;17.70;4.30;;;;;;;10.33;98.07;100676.41;5006953;28;20061;-61
2024/01/28 03:34:21;;;;;;;19.17;5.80;;;;;;;10.33;97.82;100668.09;5005938;28;20050;-62
2024/01/28 03:36:49;;;;;;;15.90;4.35;;;;;;;10.31;97.79;100648.25;5006751;28;20054;-62
2024/01/28 03:39:16;;;;;;;16.55;4.30;;;;;;;10.31;97.76;100622.56;5006487;28;20066;-62
2024/01/28 03:41:44;;;;;;;24.52;3.78;;;;;;;10.31;97.51;100634.44;5005257;28;20045;-62
2024/01/28 03:44:17;;;;;;;20.80;4.32;;;;;;;10.29;97.38;100614.59;5005694;28;20046;-62
2024/01/28 03:46:44;;;;;;;24.67;4.63;;;;;;;10.28;97.25;100612.97;5006327;28;20108;-62
2024/01/28 03:49:11;;;;;;;14.25;4.22;;;;;;;10.27;97.01;100616.91;4998432;28;20065;-62
2024/01/28 03:51:39;;;;;;;26.25;4.47;;;;;;;10.27;97.09;100605.81;5006280;28;20547;-61
2024/01/28 03:54:07;;;;;;;19.05;3.78;;;;;;;10.29;97.00;100608.25;5007490;28;20061;-61
2024/01/28 03:56:34;;;;;;;16.63;4.22;;;;;;;10.29;96.64;100600.78;5008159;28;20080;-61
2024/01/28 03:59:01;;;;;;;24.35;5.72;;;;;;;10.29;96.62;100603.53;5008589;28;20053;-62
2024/01/28 04:01:31;;;;;;;21.75;4.55;;;;;;;10.28;96.65;100590.84;5009365;28;20057;-62
2024/01/28 04:03:59;;;;;;;20.30;5.07;;;;;;;10.27;96.62;100577.38;5009110;28;20508;-62
2024/01/28 04:06:27;;;;;;;23.48;5.63;;;;;;;10.25;96.54;100569.41;5009711;28;20539;-61
2024/01/28 04:08:55;;;;;;;15.32;3.60;;;;;;;10.23;96.40;100576.44;5007115;28;20607;-62
2024/01/28 04:11:26;;;;;;;18.20;3.70;;;;;;;10.20;96.48;100577.13;4995966;28;20052;-62
2024/01/28 04:13:55;;;;;;;19.00;4.00;;;;;;;10.18;96.67;100562.84;5009060;28;20057;-62
2024/01/28 04:16:23;;;;;;;24.83;4.32;;;;;;;10.14;96.83;100568.25;5009271;28;20050;-62
2024/01/28 04:18:51;;;;;;;17.83;3.45;;;;;;;10.12;96.89;100573.34;5007399;28;20050;-62
2024/01/28 04:21:18;;;;;;;18.50;3.72;;;;;;;10.11;96.90;100560.59;5000762;28;20050;-61
2024/01/28 04:23:49;;;;;;;10.93;4.43;;;;;;;10.08;96.90;100546.69;5009198;28;20057;-62
2024/01/28 04:26:18;;;;;;;19.67;5.97;;;;;;;10.04;97.01;100563.16;5008942;28;20124;-63
2024/01/28 04:28:46;;;;;;;12.13;3.38;;;;;;;9.99;97.04;100557.84;5008960;28;20160;-62
2024/01/28 04:31:14;;;;;;;18.67;3.00;;;;;;;9.97;97.20;100551.06;5000898;28;20093;-61
2024/01/28 04:33:41;;;;;;;14.70;4.15;;;;;;;9.95;97.41;100548.66;5007421;28;20060;-61
2024/01/28 04:36:09;;;;;;;19.25;6.10;;;;;;;9.92;97.60;100538.28;5007710;28;20606;-62
2024/01/28 04:38:37;;;;;;;17.98;4.20;;;;;;;9.88;97.64;100526.28;5007018;28;20042;-62
2024/01/28 04:41:04;;;;;;;20.38;3.67;;;;;;;9.85;97.76;100528.94;5006024;28;20037;-62
2024/01/28 04:43:32;;;;;;;22.55;3.78;;;;;;;9.81;97.80;100537.13;5007969;28;20507;-62
2024/01/28 04:45:59;;;;;;;24.92;4.82;;;;;;;9.78;97.86;100543.34;5008560;28;20072;-61
2024/01/28 04:48:26;;;;;;;21.83;8.00;;;;;;;9.74;97.82;100523.84;5007766;28;20060;-61
2024/01/28 04:50:54;;;;;;;16.75;3.60;;;;;;;9.72;98.18;100517.06;5008173;28;20054;-61
2024/01/28 04:53:22;;;;;;;17.40;3.95;;;;;;;9.71;98.36;100515.47;5003976;28;20052;-62
2024/01/28 04:55:49;;;;;;;26.85;6.18;;;;;;;9.73;98.24;100504.88;5008381;28;20053;-62
2024/01/28 04:58:17;;;;;;;20.38;5.35;;;;;;;9.72;98.77;100508.78;5007970;28;20069;-62
2024/01/28 05:00:44;;;;;;;23.13;5.60;;;;;;;9.72;98.63;100498.53;5005938;28;20078;-62
2024/01/28 05:03:12;;;;;;;18.88;3.53;;;;;;;9.75;98.52;100488.72;5007198;28;20053;-62
2024/01/28 05:05:39;;;;;;;25.73;3.75;;;;;;;9.74;98.46;100485.16;5007875;28;20054;-62
2024/01/28 05:08:07;;;;;;;24.05;4.82;;;;;;;9.76;98.42;100482.06;5008349;28;20046;-62
2024/01/28 05:10:34;;;;;;;20.85;5.38;;;;;;;9.76;98.48;100484.81;4994160;28;21042;-62
2024/01/28 05:13:02;;;;;;;24.33;6.00;;;;;;;9.76;98.77;100473.75;5008000;28;20085;-62
2024/01/28 05:15:29;;;;;;;23.95;4.97;;;;;;;9.77;98.55;100469.84;5007666;28;20053;-62
2024/01/28 05:17:58;;;;;;;28.15;4.50;;;;;;;9.76;98.63;100462.72;5007852;28;20054;-62
2024/01/28 05:20:26;;;;;;;21.17;4.90;;;;;;;9.75;98.73;100456.38;5007899;28;20054;-63
2024/01/28 05:22:53;;;;;;;30.60;5.75;;;;;;;9.77;98.79;100458.78;5006876;28;20044;-63
2024/01/28 05:25:20;;;;;;;25.75;5.95;;;;;;;9.82;98.67;100449.47;5007584;28;20041;-63
2024/01/28 05:27:48;;;;;;;24.08;6.07;;;;;;;9.84;98.59;100436.91;5007990;28;20046;-62
2024/01/28 05:30:16;;;;;;;23.73;5.82;;;;;;;9.85;98.65;100438.50;5007320;28;20049;-62
2024/01/28 05:32:44;;;;;;;20.38;5.03;;;;;;;9.85;98.37;100435.72;5006692;28;20050;-62
2024/01/28 05:35:11;;;;;;;28.73;7.00;;;;;;;9.86;98.49;100445.66;5001649;28;20042;-62
2024/01/28 05:37:40;;;;;;;25.75;5.43;;;;;;;9.87;98.66;100447.25;5006565;28;20060;-62
2024/01/28 05:40:09;;;;;;;31.58;8.43;;;;;;;9.87;98.58;100435.41;5007593;28;20046;-62
2024/01/28 05:42:36;;;;;;;26.50;5.53;;;;;;;9.88;98.61;100429.50;5003354;28;20061;-62
2024/01/28 05:45:04;;;;;;;35.28;9.50;;;;;;;9.89;98.42;100420.06;5001578;28;20046;-62
2024/01/28 05:47:31;;;;;;;23.80;6.28;;;;;;;9.90;98.43;100424.44;5001884;28;20411;-62
2024/01/28 05:49:59;;;;;;;28.83;5.43;;;;;;;9.93;98.60;100422.94;5007445;28;20061;-62
2024/01/28 05:52:26;;;;;;;19.95;6.43;;;;;;;9.96;98.33;100422.22;5007153;28;20054;-62
2024/01/28 05:54:54;;;;;;;32.00;9.93;;;;;;;9.98;98.36;100420.72;5006840;28;20061;-62
2024/01/28 05:57:21;;;;;;;24.00;4.97;;;;;;;9.99;98.29;100416.00;5005129;28;20065;-62
2024/01/28 05:59:49;;;;;;;35.72;7.97;;;;;;;9.99;98.35;100416.00;4995020;28;20045;-62
2024/01/28 06:02:20;;;;;;;39.72;7.00;;;;;;;9.99;98.26;100429.84;5005603;28;20045;-62
2024/01/28 06:04:48;;;;;;;32.42;6.05;;;;;;;9.99;98.16;100416.81;5006181;28;20069;-62
2024/01/28 06:07:15;;;;;;;38.97;8.20;;;;;;;10.00;98.18;100428.69;5005080;28;20054;-62
2024/01/28 06:09:43;;;;;;;27.60;6.72;;;;;;;10.02;98.12;100427.19;5007340;28;20053;-62
2024/01/28 06:12:10;;;;;;;30.70;8.90;;;;;;;10.02;98.16;100420.84;5006672;28;20045;-62
2024/01/28 06:14:37;;;;;;;29.92;5.85;;;;;;;10.02;98.16;100399.53;5006561;28;20058;-62
2024/01/28 06:17:05;;;;;;;32.95;7.63;;;;;;;10.03;98.24;100401.16;5005578;28;20046;-62
2024/01/28 06:19:32;;;;;;;30.90;5.78;;;;;;;10.03;98.45;100409.44;5005583;28;20046;-62
2024/01/28 06:22:02;;;;;;;34.75;6.55;;;;;;;10.05;98.28;100412.66;4993499;28;20065;-62
2024/01/28 06:24:33;;;;;;;43.88;10.75;;;;;;;10.06;98.40;100400.44;5006725;28;20046;-62
2024/01/28 06:27:00;;;;;;;36.45;7.40;;;;;;;10.08;98.22;100419.44;5006285;28;20050;-62
2024/01/28 06:29:28;;;;;;;36.95;9.68;;;;;;;10.08;98.39;100397.31;5006042;28;20060;-62
2024/01/28 06:31:55;;;;;;;29.00;7.90;;;;;;;10.06;98.35;100400.44;5001947;28;20050;-62
2024/01/28 06:34:23;;;;;;;41.30;10.02;;;;;;;10.06;98.35;100402.41;5005010;28;20061;-62
2024/01/28 06:36:51;;;;;;;33.30;8.25;;;;;;;10.05;98.41;100392.50;4993849;28;20056;-63
2024/01/28 06:39:18;;;;;;;37.35;8.35;;;;;;;10.04;98.47;100391.69;5004875;28;20068;-63
2024/01/28 06:41:47;;;;;;;43.25;8.85;;;;;;;10.05;98.50;100381.44;5006814;28;20049;-62
2024/01/28 06:44:15;;;;;;;39.28;9.00;;;;;;;10.07;98.39;100374.38;5005986;28;20057;-62
2024/01/28 06:46:42;;;;;;;43.70;8.18;;;;;;;10.08;98.33;100376.00;5005409;28;20050;-63
2024/01/28 06:49:10;;;;;;;47.97;9.43;;;;;;;10.10;98.36;100373.69;5021127;28;20085;-62
2024/01/28 06:51:42;;;;;;;40.60;9.45;;;;;;;10.12;98.27;100367.78;5008430;28;20521;-62
2024/01/28 06:54:12;;;;;;;52.47;11.43;;;;;;;10.13;98.22;100363.91;5006501;28;20053;-62
2024/01/28 06:56:39;;;;;;;50.65;9.50;;;;;;;10.14;98.07;100368.31;5005524;28;20061;-62
2024/01/28 06:59:07;;;;;;;42.75;9.15;;;;;;;10.13;98.14;100369.44;5006667;28;20053;-62
2024/01/28 07:01:35;;;;;;;42.00;7.78;;;;;;;10.14;98.12;100369.09;5006891;28;20045;-62
2024/01/28 07:04:02;;;;;;;44.50;9.38;;;;;;;10.12;98.09;100363.09;5006100;28;20064;-62
2024/01/28 07:06:30;;;;;;;41.00;8.43;;;;;;;10.11;98.18;100357.91;5005823;28;20058;-63
2024/01/28 07:08:57;;;;;;;50.53;8.30;;;;;;;10.09;98.27;100349.94;5005319;28;20061;-62
2024/01/28 07:11:26;;;;;;;48.22;9.18;;;;;;;10.08;98.34;100339.25;4998164;28;20412;-62
2024/01/28 07:13:54;;;;;;;37.40;8.30;;;;;;;10.06;98.33;100342.34;5004459;28;20443;-63
2024/01/28 07:16:21;;;;;;;34.08;7.90;;;;;;;10.05;98.22;100335.22;5002337;28;20038;-62
2024/01/28 07:18:49;;;;;;;40.90;7.47;;;;;;;10.03;98.19;100345.84;5005771;28;20684;-62
2024/01/28 07:21:18;;;;;;;33.70;7.13;;;;;;;10.01;98.31;100352.84;5005534;28;20038;-63
2024/01/28 07:23:46;;;;;;;35.47;8.98;;;;;;;9.97;98.39;100344.47;5005780;28;20471;-62
2024/01/28 07:26:13;;;;;;;38.40;8.68;;;;;;;9.95;98.42;100338.50;5006026;28;20042;-62
2024/01/28 07:28:41;;;;;;;38.92;9.48;;;;;;;9.95;98.41;100327.44;5004972;28;20053;-62
2024/01/28 07:31:09;;;;;;;39.55;8.30;;;;;;;9.93;98.54;100313.13;5007466;28;20046;-62
2024/01/28 07:33:36;;;;;;;37.80;10.75;;;;;;;9.94;98.48;100298.16;5002083;28;20148;-62
2024/01/28 07:36:04;;;;;;;28.20;7.68;;;;;;;9.92;98.47;100300.47;5009351;28;20046;-62
2024/01/28 07:38:32;;;;;;;32.50;7.32;;;;;;;9.90;98.72;100297.22;5009062;28;20061;-62
2024/01/28 07:40:59;;;;;;;37.50;8.88;;;;;;;9.89;98.73;100301.16;5009011;28;20050;-62
2024/01/28 07:43:26;;;;;;;38.58;8.18;;;;;;;9.89;98.69;100298.41;5009755;28;20057;-62
2024/01/28 07:45:54;;;;;;;36.50;7.22;;;;;;;9.89;98.54;100283.78;5008993;28;20053;-62
2024/01/28 07:48:21;;;;;;;43.58;8.18;;;;;;;9.87;98.71;100286.09;5009130;28;20054;-62
2024/01/28 07:50:49;;;;;;;38.05;8.60;;;;;;;9.84;98.76;100295.88;5008984;28;20060;-63
2024/01/28 07:53:16;;;;;;;32.45;8.68;;;;;;;9.82;98.67;100290.69;5009232;28;20657;-62
2024/01/28 07:55:44;;;;;;;40.50;8.88;;;;;;;9.80;98.94;100293.00;5008932;28;20053;-62
2024/01/28 07:58:11;;;;;;;51.70;10.88;;;;;;;9.81;99.02;100293.81;5009639;28;20415;-62
2024/01/28 08:00:39;;;;;;;40.15;7.15;;;;;;;9.80;98.92;100289.44;5005258;28;20141;-62
2024/01/28 08:03:06;;;;;;;44.28;10.52;;;;;;;9.80;99.11;100309.59;5023885;28;20053;-62
2024/01/28 08:05:34;;;;;;;36.72;8.77;;;;;;;9.80;99.00;100308.78;5023932;28;20084;-62
2024/01/28 08:08:01;;;;;;;38.28;7.90;;;;;;;9.78;99.14;100305.56;5008774;28;20053;-63
2024/01/28 08:10:29;;;;;;;46.22;7.57;;;;;;;9.76;99.42;100318.97;5007375;28;20054;-62
2024/01/28 08:12:56;;;;;;;30.83;6.97;;;;;;;9.75;99.35;100312.63;5008583;28;20061;-63
2024/01/28 08:15:24;;;;;;;26.27;6.38;;;;;;;9.73;99.39;100312.16;5008115;28;20054;-62
2024/01/28 08:17:51;;;;;;;26.50;7.43;;;;;;;9.71;99.38;100319.19;5008602;28;20050;-62
2024/01/28 08:20:19;;;;;;;27.30;6.03;;;;;;;9.68;99.37;100303.31;5008489;28;20042;-63
2024/01/28 08:22:46;;;;;;;32.08;8.88;;;;;;;9.68;99.49;100306.06;5008331;28;20431;-62
2024/01/28 08:25:14;;;;;;;29.25;6.50;;;;;;;9.65;99.52;100301.25;5008263;28;20073;-62
2024/01/28 08:27:41;;;;;;;19.02;5.47;;;;;;;9.63;99.49;100312.66;5008587;28;20412;-62
2024/01/28 08:30:11;;;;;;;28.27;6.70;;;;;;;9.62;99.72;100285.34;5003746;28;20046;-63
2024/01/28 08:32:38;;;;;;;29.67;5.53;;;;;;;9.61;99.64;100292.06;5008101;28;20049;-62
2024/01/28 08:35:07;;;;;;;29.70;7.68;;;;;;;9.58;99.89;100293.53;5008467;28;20412;-62
2024/01/28 08:37:35;;;;;;;16.52;6.75;;;;;;;9.61;99.84;100292.06;5008186;28;20049;-62
2024/01/28 08:40:07;;;;;;;23.02;4.78;;;;;;;9.61;99.93;100287.31;5002119;28;20046;-62
2024/01/28 08:42:35;;;;;;;22.63;5.28;;;;;;;9.63;99.87;100289.75;5008001;28;20058;-62
2024/01/28 08:45:02;;;;;;;16.92;5.32;;;;;;;9.65;99.72;100287.44;5007964;28;20511;-62
2024/01/28 08:47:30;;;;;;;23.92;6.05;;;;;;;9.67;99.75;100276.81;5007179;28;20475;-62
2024/01/28 08:49:59;;;;;;;22.65;5.28;;;;;;;9.69;99.65;100272.53;5008241;28;20049;-62
2024/01/28 08:52:27;;;;;;;23.67;6.30;;;;;;;9.70;99.64;100276.94;5005970;28;20145;-62
2024/01/28 08:54:54;;;;;;;29.60;5.07;;;;;;;9.72;99.64;100284.84;4999256;28;20046;-63
2024/01/28 08:57:22;;;;;;;30.27;7.22;;;;;;;9.72;99.52;100274.63;5008248;28;20053;-62
2024/01/28 08:59:49;;;;;;;19.17;5.57;;;;;;;9.73;99.55;100275.41;5008035;28;20053;-62
2024/01/28 09:02:16;;;;;;;21.67;4.55;;;;;;;9.72;99.78;100279.31;5005594;28;20077;-65
2024/01/28 09:04:44;;;;;;;19.23;5.25;;;;;;;9.73;99.47;100253.31;5008238;28;20444;-62
2024/01/28 09:07:11;;;;;;;22.83;4.55;;;;;;;9.72;99.78;100271.03;5007715;28;20057;-62
2024/01/28 09:09:39;;;;;;;19.92;4.30;;;;;;;9.72;99.74;100271.84;5007808;28;20415;-63
2024/01/28 09:12:06;;;;;;;25.38;4.50;;;;;;;9.72;99.79;100251.69;5005779;28;20049;-63
2024/01/28 09:14:34;;;;;;;18.27;5.43;;;;;;;9.72;99.70;100273.81;5007902;28;20042;-62
2024/01/28 09:17:02;;;;;;;19.75;4.95;;;;;;;9.72;99.83;100268.28;5007385;28;20065;-62
2024/01/28 09:19:29;;;;;;;17.80;4.43;;;;;;;9.71;100.00;100284.06;5004911;28;20056;-63
2024/01/28 09:21:57;;;;;;;25.73;5.22;;;;;;;9.72;100.00;100285.66;5007062;28;20046;-62
2024/01/28 09:24:24;;;;;;;21.63;5.28;;;;;;;9.74;100.00;100266.75;5006334;28;20034;-63
2024/01/28 09:26:52;;;;;;;17.25;7.50;;;;;;;9.75;100.00;100254.56;5004980;28;20053;-63
2024/01/28 09:29:20;;;;;;;19.20;4.25;;;;;;;9.77;100.00;100268.84;5019505;28;20053;-63
2024/01/28 09:31:48;;;;;;;31.08;7.13;;;;;;;9.78;99.91;100269.63;5006508;28;20507;-64
2024/01/28 09:34:15;;;;;;;32.22;6.07;;;;;;;9.79;99.80;100283.09;5004727;28;20046;-63
2024/01/28 09:36:43;;;;;;;20.80;4.60;;;;;;;9.81;99.93;100296.59;5005865;28;20085;-61
2024/01/28 09:39:11;;;;;;;27.48;5.57;;;;;;;9.82;99.84;100301.75;5006552;28;20042;-63
2024/01/28 09:42:11;;;;;;;25.25;5.82;;;;;;;9.84;99.94;100289.56;5007586;28;20056;-62
2024/01/28 09:44:38;;;;;;;30.77;5.68;;;;;;;9.85;99.91;100293.94;4996482;28;20056;-62
2024/01/28 09:47:07;;;;;;;17.80;5.68;;;;;;;9.83;99.91;100285.97;5007636;28;20050;-62
2024/01/28 09:49:39;;;;;;;24.63;5.07;;;;;;;9.84;99.86;100276.53;5004198;28;20400;-62
2024/01/28 09:52:10;;;;;;;24.90;5.47;;;;;;;9.86;99.72;100273.41;5002545;28;20050;-63
2024/01/28 09:54:46;;;;;;;22.75;4.55;;;;;;;9.88;99.79;100284.91;5005705;28;20050;-62
2024/01/28 09:57:17;;;;;;;20.33;5.28;;;;;;;9.91;99.68;100307.16;5017632;28;20157;-62
2024/01/28 10:00:02;;;;;;;29.52;5.30;;;;;;;9.96;99.41;100312.44;5006121;28;20054;-63
2024/01/28 10:02:42;;;;;;;17.23;4.40;;;;;;;10.01;99.59;100298.34;5006877;28;20077;-62
2024/01/28 10:05:14;;;;;;;24.85;5.00;;;;;;;10.07;99.51;100296.94;5024082;28;20507;-62
2024/01/28 10:07:47;;;;;;;21.30;5.03;;;;;;;10.12;99.47;100280.13;5020449;28;20049;-62
2024/01/28 10:10:19;;;;;;;22.85;4.90;;;;;;;10.16;99.34;100294.06;4992882;28;20127;-62
2024/01/28 10:12:49;;;;;;;19.00;5.30;;;;;;;10.21;99.33;100302.91;4990625;28;20048;-63
2024/01/28 10:15:26;;;;;;;29.38;5.78;;;;;;;10.25;98.93;100287.19;5023207;28;20049;-63
2024/01/28 10:18:00;;;;;;;22.23;5.00;;;;;;;10.27;98.88;100262.75;5021665;28;20049;-64
2024/01/28 10:20:32;;;;;;;34.50;6.32;;;;;;;10.28;98.95;100245.00;5005033;28;20053;-63
2024/01/28 10:23:01;;;;;;;21.40;4.60;;;;;;;10.29;98.57;100248.56;5020812;28;20050;-62
2024/01/28 10:25:30;;;;;;;17.92;4.35;;;;;;;10.32;98.75;100258.94;5026443;28;20068;-62
2024/01/28 10:28:00;;;;;;;25.40;6.28;;;;;;;10.33;98.52;100266.88;5008311;28;20053;-62
2024/01/28 10:30:28;;;;;;;19.95;4.90;;;;;;;10.35;98.33;100275.59;5025764;28;20049;-63
2024/01/28 10:32:56;;;;;;;21.50;5.82;;;;;;;10.37;97.95;100273.31;5025407;28;20049;-63
2024/01/28 10:35:25;;;;;;;40.47;6.75;;;;;;;10.40;97.86;100288.41;5025881;28;20046;-63
2024/01/28 10:37:54;;;;;;;25.63;6.30;;;;;;;10.40;97.86;100277.31;5025278;28;20124;-62
2024/01/28 10:40:29;;;;;;;26.08;6.00;;;;;;;10.39;97.73;100253.56;5005133;28;20044;-63
2024/01/28 10:43:02;;;;;;;30.13;6.13;;;;;;;10.40;97.48;100233.84;5022383;28;20053;-62
2024/01/28 10:45:32;;;;;;;20.90;6.40;;;;;;;10.42;97.34;100249.28;5018005;28;20414;-62
2024/01/28 10:48:07;;;;;;;38.08;6.20;;;;;;;10.43;97.17;100248.13;5020326;28;20049;-62
2024/01/28 10:50:37;;;;;;;30.50;8.38;;;;;;;10.45;97.03;100235.56;5026156;28;20049;-63
2024/01/28 10:53:06;;;;;;;32.40;6.57;;;;;;;10.46;96.92;100241.91;5024770;28;20049;-63
2024/01/28 10:55:34;;;;;;;29.67;5.68;;;;;;;10.46;96.66;100230.81;5018934;28;20063;-65
2024/01/28 10:58:04;;;;;;;21.80;6.07;;;;;;;10.47;96.40;100221.34;5016765;28;20756;-63
2024/01/28 11:00:32;;;;;;;36.42;7.80;;;;;;;10.47;96.25;100205.56;5016289;28;20042;-63
2024/01/28 11:03:01;;;;;;;28.98;6.57;;;;;;;10.50;96.00;100215.09;5016281;28;20045;-69
2024/01/28 11:05:29;;;;;;;21.88;5.70;;;;;;;10.52;95.86;100212.78;5029726;28;20049;-62
2024/01/28 11:07:59;;;;;;;29.15;5.65;;;;;;;10.52;95.74;100210.00;5031981;28;20708;-63
2024/01/28 11:10:29;;;;;;;30.65;7.45;;;;;;;10.52;95.73;100208.03;5023496;28;20041;-63
2024/01/28 11:12:57;;;;;;;31.48;6.28;;;;;;;10.52;95.44;100196.97;5026286;28;20885;-63
2024/01/28 11:15:27;;;;;;;29.85;7.43;;;;;;;10.52;95.38;100213.59;5029380;28;20037;-63
2024/01/28 11:18:02;;;;;;;24.38;6.43;;;;;;;10.51;95.76;100233.31;5008702;28;20132;-63
2024/01/28 11:20:34;;;;;;;32.03;9.38;;;;;;;10.50;95.38;100248.31;4991876;28;20034;-62
2024/01/28 11:23:02;;;;;;;25.63;7.03;;;;;;;10.49;95.29;100238.38;5021882;28;20041;-63
2024/01/28 11:25:30;;;;;;;30.75;6.50;;;;;;;10.48;95.48;100236.81;5029272;28;20053;-62
2024/01/28 11:28:02;;;;;;;23.55;6.18;;;;;;;10.48;95.43;100222.97;5028716;28;20076;-62